createdAt,value
2023-01-22T00:00:08.071Z,80.83
2023-01-22T00:02:43.875Z,80.89
2023-01-22T00:05:10.890Z,80.75
2023-01-22T00:07:38.137Z,80.81
2023-01-22T00:10:05.675Z,80.88
2023-01-22T00:12:32.651Z,80.95
2023-01-22T00:14:59.600Z,80.97
2023-01-22T00:17:26.554Z,80.90
2023-01-22T00:19:53.510Z,80.94
2023-01-22T00:22:20.563Z,81.01
2023-01-22T00:24:47.609Z,80.90
2023-01-22T00:27:14.543Z,80.96
2023-01-22T00:29:41.507Z,80.81
2023-01-22T00:32:08.581Z,80.94
2023-01-22T00:34:35.718Z,81.00
2023-01-22T00:37:02.627Z,80.86
2023-01-22T00:39:29.625Z,80.90
2023-01-22T00:41:56.581Z,80.93
2023-01-22T00:44:23.829Z,81.06
2023-01-22T00:46:53.001Z,80.92
2023-01-22T00:49:20.393Z,80.95
2023-01-22T00:51:47.276Z,80.92
2023-01-22T00:54:14.397Z,81.04
2023-01-22T00:56:41.316Z,81.09
2023-01-22T00:59:10.844Z,81.08
2023-01-22T01:01:38.813Z,81.21
2023-01-22T01:04:06.226Z,81.27
2023-01-22T01:06:33.121Z,81.23
2023-01-22T01:09:00.126Z,81.22
2023-01-22T01:11:27.734Z,81.25
2023-01-22T01:13:55.941Z,81.22
2023-01-22T01:16:29.853Z,81.16
2023-01-22T01:19:04.990Z,81.19
2023-01-22T01:21:31.908Z,81.26
2023-01-22T01:23:59.113Z,81.31
2023-01-22T01:26:26.153Z,81.44
2023-01-22T01:28:53.199Z,81.47
2023-01-22T01:31:21.278Z,81.48
2023-01-22T01:33:49.354Z,81.53
2023-01-22T01:36:35.253Z,81.63
2023-01-22T01:39:08.023Z,81.69
2023-01-22T01:41:34.967Z,81.70
2023-01-22T01:44:11.439Z,81.70
2023-01-22T01:46:52.315Z,81.85
2023-01-22T01:49:31.020Z,81.75
2023-01-22T01:52:03.994Z,81.84
2023-01-22T01:54:31.584Z,81.70
2023-01-22T01:57:08.372Z,81.73
2023-01-22T01:59:35.517Z,81.80
2023-01-22T02:02:03.053Z,81.83
2023-01-22T02:04:30.029Z,81.85
2023-01-22T02:06:56.975Z,81.76
2023-01-22T02:09:23.912Z,81.71
2023-01-22T02:11:51.331Z,81.67
2023-01-22T02:14:20.794Z,81.70
2023-01-22T02:16:47.847Z,81.67
2023-01-22T02:19:15.620Z,81.76
2023-01-22T02:21:43.660Z,81.63
2023-01-22T02:24:12.488Z,81.60
2023-01-22T02:26:40.257Z,81.68
2023-01-22T02:29:08.969Z,81.82
2023-01-22T02:31:36.968Z,81.81
2023-01-22T02:34:04.043Z,81.69
2023-01-22T02:36:31.614Z,81.58
2023-01-22T02:38:58.565Z,81.48
2023-01-22T02:41:26.062Z,81.48
2023-01-22T02:43:53.110Z,81.57
2023-01-22T02:46:21.415Z,81.48
2023-01-22T02:48:48.353Z,81.75
2023-01-22T02:51:15.644Z,81.65
2023-01-22T02:53:44.217Z,81.60
2023-01-22T02:56:11.465Z,81.65
2023-01-22T02:58:38.957Z,81.67
2023-01-22T03:01:23.249Z,81.62
2023-01-22T03:03:53.972Z,81.60
2023-01-22T03:06:22.120Z,81.75
2023-01-22T03:08:53.224Z,81.73
2023-01-22T03:11:20.202Z,81.79
2023-01-22T03:14:07.626Z,81.86
2023-01-22T03:16:53.576Z,81.88
2023-01-22T03:19:39.580Z,81.85
2023-01-22T03:22:11.532Z,81.92
2023-01-22T03:24:38.576Z,81.86
2023-01-22T03:27:05.519Z,81.85
2023-01-22T03:29:32.788Z,81.90
2023-01-22T03:32:00.604Z,81.95
2023-01-22T03:34:27.610Z,81.97
2023-01-22T03:36:55.114Z,81.98
2023-01-22T03:39:22.228Z,82.01
2023-01-22T03:41:49.280Z,82.10
2023-01-22T03:44:16.542Z,82.07
2023-01-22T03:46:43.489Z,82.09
2023-01-22T03:49:12.709Z,82.12
2023-01-22T03:51:40.729Z,82.03
2023-01-22T03:54:07.672Z,82.14
2023-01-22T03:56:35.626Z,82.09
2023-01-22T03:59:06.641Z,82.08
2023-01-22T04:01:34.014Z,82.04
2023-01-22T04:04:01.076Z,81.98
2023-01-22T04:06:28.312Z,82.01
2023-01-22T04:08:55.442Z,81.91
2023-01-22T04:11:28.052Z,81.75
2023-01-22T04:13:55.160Z,81.80
2023-01-22T04:16:22.405Z,81.70
2023-01-22T04:19:04.863Z,81.62
2023-01-22T04:21:45.120Z,81.51
2023-01-22T04:24:14.015Z,81.45
2023-01-22T04:26:41.265Z,81.34
2023-01-22T04:29:09.467Z,81.42
2023-01-22T04:31:36.808Z,81.39
2023-01-22T04:34:18.853Z,81.36
2023-01-22T04:36:51.375Z,81.37
2023-01-22T04:39:18.441Z,81.18
2023-01-22T04:41:45.489Z,81.18
2023-01-22T04:44:12.433Z,81.14
2023-01-22T04:46:41.028Z,81.18
2023-01-22T04:49:08.075Z,80.96
2023-01-22T04:51:35.540Z,80.93
2023-01-22T04:54:02.463Z,80.87
2023-01-22T04:56:29.447Z,80.92
2023-01-22T04:58:56.504Z,81.02
2023-01-22T05:01:23.460Z,80.95
2023-01-22T05:03:50.703Z,80.97
2023-01-22T05:06:17.614Z,80.81
2023-01-22T05:08:44.729Z,80.64
2023-01-22T05:11:11.764Z,80.57
2023-01-22T05:13:45.815Z,80.54
2023-01-22T05:16:13.136Z,80.75
2023-01-22T05:18:40.191Z,80.64
2023-01-22T05:21:07.240Z,80.52
2023-01-22T05:23:36.344Z,80.36
2023-01-22T05:26:03.399Z,80.25
2023-01-22T05:28:51.889Z,80.06
2023-01-22T05:31:48.064Z,80.04
2023-01-22T05:34:29.237Z,79.88
2023-01-22T05:36:56.496Z,79.80
2023-01-22T05:39:25.117Z,79.70
2023-01-22T05:41:53.767Z,79.70
2023-01-22T05:44:20.664Z,79.47
2023-01-22T05:46:51.703Z,79.44
2023-01-22T05:49:45.670Z,79.45
2023-01-22T05:52:15.002Z,79.44
2023-01-22T05:54:42.010Z,79.40
2023-01-22T05:57:08.938Z,79.41
2023-01-22T05:59:38.143Z,79.41
2023-01-22T06:02:06.526Z,79.24
2023-01-22T06:04:35.221Z,79.05
2023-01-22T06:07:05.335Z,79.08
2023-01-22T06:09:32.392Z,79.15
2023-01-22T06:11:59.492Z,79.09
2023-01-22T06:14:26.376Z,79.03
2023-01-22T06:16:55.458Z,78.88
2023-01-22T06:19:30.439Z,78.73
2023-01-22T06:21:57.990Z,78.75
2023-01-22T06:24:33.788Z,78.81
2023-01-22T06:27:01.830Z,78.71
2023-01-22T06:29:36.757Z,78.75
2023-01-22T06:32:05.616Z,78.78
2023-01-22T06:34:32.457Z,78.78
2023-01-22T06:36:59.734Z,78.78
2023-01-22T06:39:28.549Z,78.77
2023-01-22T06:42:03.484Z,78.77
2023-01-22T06:44:30.533Z,78.78
2023-01-22T06:46:57.716Z,78.75
2023-01-22T06:49:26.539Z,78.62
2023-01-22T06:51:54.978Z,78.66
2023-01-22T06:54:23.157Z,78.57
2023-01-22T06:56:50.001Z,78.55
2023-01-22T06:59:17.052Z,78.64
2023-01-22T07:01:44.028Z,78.79
2023-01-22T07:04:11.095Z,78.80
2023-01-22T07:06:38.115Z,78.62
2023-01-22T07:09:05.063Z,78.50
2023-01-22T07:11:32.114Z,78.45
2023-01-22T07:13:59.068Z,78.55
2023-01-22T07:16:26.054Z,78.60
2023-01-22T07:18:53.085Z,78.43
2023-01-22T07:21:20.032Z,78.63
2023-01-22T07:23:46.911Z,78.50
2023-01-22T07:26:14.666Z,78.56
2023-01-22T07:28:41.540Z,78.61
2023-01-22T07:31:12.244Z,78.60
2023-01-22T07:33:39.371Z,78.38
2023-01-22T07:36:07.017Z,78.40
2023-01-22T07:38:33.894Z,78.41
2023-01-22T07:41:13.958Z,78.48
2023-01-22T07:43:49.354Z,78.58
2023-01-22T07:46:16.698Z,78.59
2023-01-22T07:48:45.724Z,78.55
2023-01-22T07:51:12.939Z,78.52
2023-01-22T07:53:40.337Z,78.53
2023-01-22T07:56:07.685Z,78.49
2023-01-22T07:58:34.828Z,78.47
2023-01-22T08:01:06.159Z,78.55
2023-01-22T08:03:34.296Z,78.58
2023-01-22T08:06:01.812Z,78.48
2023-01-22T08:08:28.830Z,78.48
2023-01-22T08:10:58.555Z,78.50
2023-01-22T08:13:25.428Z,78.36
2023-01-22T08:15:52.338Z,78.60
2023-01-22T08:18:20.871Z,78.51
2023-01-22T08:20:49.213Z,78.50
2023-01-22T08:23:16.077Z,78.31
2023-01-22T08:25:43.008Z,78.45
2023-01-22T08:28:10.067Z,78.50
2023-01-22T08:30:45.514Z,78.53
2023-01-22T08:33:13.385Z,78.47
2023-01-22T08:35:40.250Z,78.26
2023-01-22T08:38:07.203Z,78.16
2023-01-22T08:40:34.094Z,78.08
2023-01-22T08:43:00.941Z,78.10
2023-01-22T08:45:27.978Z,78.07
2023-01-22T08:47:59.932Z,78.08
2023-01-22T08:50:27.919Z,78.09
2023-01-22T08:52:57.472Z,78.07
2023-01-22T08:55:25.052Z,78.04
2023-01-22T08:57:54.145Z,77.94
2023-01-22T09:00:22.122Z,77.98
2023-01-22T09:02:49.102Z,78.05
2023-01-22T09:05:16.328Z,77.93
2023-01-22T09:07:43.587Z,77.81
2023-01-22T09:10:13.090Z,77.77
2023-01-22T09:12:40.379Z,77.76
2023-01-22T09:15:08.128Z,77.58
2023-01-22T09:17:35.181Z,77.56
2023-01-22T09:20:02.249Z,77.57
2023-01-22T09:22:29.198Z,77.49
2023-01-22T09:24:56.238Z,77.51
2023-01-22T09:27:23.283Z,77.50
2023-01-22T09:29:50.241Z,77.50
2023-01-22T09:32:17.181Z,77.46
2023-01-22T09:34:44.086Z,77.45
2023-01-22T09:37:11.911Z,77.43
2023-01-22T09:39:38.960Z,77.35
2023-01-22T09:42:05.925Z,77.24
2023-01-22T09:44:41.420Z,77.26
2023-01-22T09:47:15.259Z,77.48
2023-01-22T09:49:57.582Z,77.65
2023-01-22T09:52:26.946Z,77.67
2023-01-22T09:54:54.080Z,77.63
2023-01-22T09:57:31.293Z,77.63
2023-01-22T09:59:59.267Z,77.57
2023-01-22T10:02:45.493Z,77.68
2023-01-22T10:05:19.589Z,77.67
2023-01-22T10:07:53.099Z,77.59
2023-01-22T10:10:21.403Z,77.62
2023-01-22T10:12:55.929Z,77.52
2023-01-22T10:15:23.612Z,77.64
2023-01-22T10:17:50.935Z,77.67
2023-01-22T10:20:19.248Z,77.69
2023-01-22T10:22:49.061Z,77.72
2023-01-22T10:25:17.582Z,77.88
2023-01-22T10:27:44.937Z,77.88
2023-01-22T10:30:23.804Z,77.87
2023-01-22T10:33:05.428Z,77.80
2023-01-22T10:35:32.801Z,77.69
2023-01-22T10:38:00.124Z,77.61
2023-01-22T10:40:38.185Z,77.65
2023-01-22T10:43:12.457Z,77.80
2023-01-22T10:45:40.211Z,78.07
2023-01-22T10:48:15.049Z,78.10
2023-01-22T10:50:42.490Z,77.99
2023-01-22T10:53:20.799Z,77.98
2023-01-22T10:55:53.254Z,77.96
2023-01-22T10:58:21.486Z,78.05
2023-01-22T11:01:03.513Z,78.05
2023-01-22T11:03:35.271Z,78.15
2023-01-22T11:06:11.634Z,78.03
2023-01-22T11:08:45.726Z,77.98
2023-01-22T11:11:14.734Z,78.16
2023-01-22T11:13:51.227Z,78.27
2023-01-22T11:16:20.382Z,78.28
2023-01-22T11:18:58.301Z,78.39
2023-01-22T11:21:50.821Z,78.50
2023-01-22T11:24:27.854Z,78.64
2023-01-22T11:27:14.704Z,78.73
2023-01-22T11:30:07.479Z,78.84
2023-01-22T11:33:04.508Z,78.56
2023-01-22T11:35:36.670Z,78.21
2023-01-22T11:38:42.736Z,78.47
2023-01-22T11:41:13.716Z,78.23
2023-01-22T11:44:07.739Z,77.75
2023-01-22T11:46:50.066Z,77.93
2023-01-22T11:49:48.340Z,77.76
2023-01-22T11:52:33.757Z,77.68
2023-01-22T11:55:24.303Z,77.72
2023-01-22T11:57:59.375Z,77.63
2023-01-22T12:00:38.571Z,77.64
2023-01-22T12:03:27.476Z,77.93
2023-01-22T12:06:03.209Z,77.90
2023-01-22T12:08:53.267Z,77.77
2023-01-22T12:11:55.849Z,77.77
2023-01-22T12:14:31.967Z,77.70
2023-01-22T12:17:26.692Z,77.85
2023-01-22T12:20:25.087Z,77.89
2023-01-22T12:22:55.189Z,77.89
2023-01-22T12:25:40.429Z,77.86
2023-01-22T12:28:26.135Z,77.86
2023-01-22T12:31:03.885Z,77.79
2023-01-22T12:33:32.559Z,77.90
2023-01-22T12:36:01.558Z,77.87
2023-01-22T12:38:50.294Z,77.85
2023-01-22T12:41:36.279Z,77.74
2023-01-22T12:44:50.177Z,77.67
2023-01-22T12:47:21.975Z,77.54
2023-01-22T12:49:50.599Z,77.35
2023-01-22T12:52:49.759Z,77.31
2023-01-22T12:55:38.299Z,77.34
2023-01-22T12:58:05.270Z,77.32
2023-01-22T13:00:36.853Z,77.41
2023-01-22T13:03:33.169Z,77.47
2023-01-22T13:06:01.900Z,77.57
2023-01-22T13:08:38.172Z,77.55
2023-01-22T13:11:27.378Z,77.63
2023-01-22T13:14:00.665Z,77.69
2023-01-22T13:16:37.769Z,77.59
2023-01-22T13:19:17.645Z,77.62
2023-01-22T13:21:44.494Z,77.40
2023-01-22T13:24:17.142Z,77.17
2023-01-22T13:26:51.841Z,77.05
2023-01-22T13:29:20.074Z,77.16
2023-01-22T13:31:57.310Z,77.41
2023-01-22T13:34:24.812Z,77.22
2023-01-22T13:36:51.905Z,77.32
2023-01-22T13:39:32.413Z,77.20
2023-01-22T13:42:05.123Z,77.25
2023-01-22T13:44:36.662Z,77.05
2023-01-22T13:47:03.733Z,77.09
2023-01-22T13:49:41.824Z,77.32
2023-01-22T13:52:16.887Z,77.22
2023-01-22T13:54:46.167Z,77.10
2023-01-22T13:57:21.401Z,77.00
2023-01-22T13:59:58.787Z,76.96
2023-01-22T14:02:30.747Z,77.02
2023-01-22T14:04:57.719Z,77.09
2023-01-22T14:07:32.088Z,77.16
2023-01-22T14:10:14.672Z,77.20
2023-01-22T14:12:41.573Z,77.10
2023-01-22T14:15:19.732Z,77.02
2023-01-22T14:17:47.983Z,77.06
2023-01-22T14:20:16.214Z,77.09
2023-01-22T14:22:43.141Z,76.70
2023-01-22T14:25:10.207Z,76.50
2023-01-22T14:28:03.632Z,76.61
2023-01-22T14:30:30.580Z,76.67
2023-01-22T14:32:57.500Z,76.85
2023-01-22T14:35:26.595Z,76.86
2023-01-22T14:37:53.804Z,76.87
2023-01-22T14:40:22.195Z,77.15
2023-01-22T14:42:49.229Z,77.22
2023-01-22T14:45:17.025Z,77.33
2023-01-22T14:47:44.098Z,77.40
2023-01-22T14:50:12.101Z,77.44
2023-01-22T14:52:39.036Z,77.27
2023-01-22T14:55:06.601Z,77.29
2023-01-22T14:57:33.559Z,77.43
2023-01-22T15:00:01.968Z,77.58
2023-01-22T15:02:29.032Z,77.66
2023-01-22T15:04:55.984Z,77.70
2023-01-22T15:07:22.873Z,77.65
2023-01-22T15:09:49.836Z,77.58
2023-01-22T15:12:17.129Z,77.66
2023-01-22T15:14:44.190Z,77.50
2023-01-22T15:17:11.055Z,77.51
2023-01-22T15:19:41.457Z,77.52
2023-01-22T15:22:09.272Z,77.46
2023-01-22T15:24:36.317Z,77.42
2023-01-22T15:27:03.388Z,77.54
2023-01-22T15:29:30.303Z,77.60
2023-01-22T15:31:57.463Z,77.61
2023-01-22T15:34:24.552Z,77.69
2023-01-22T15:36:51.434Z,77.76
2023-01-22T15:39:18.462Z,77.96
2023-01-22T15:41:45.673Z,78.03
2023-01-22T15:44:13.908Z,78.14
2023-01-22T15:46:42.889Z,78.16
2023-01-22T15:49:10.583Z,78.30
2023-01-22T15:51:37.567Z,78.14
2023-01-22T15:54:05.688Z,78.07
2023-01-22T15:56:36.914Z,78.20
2023-01-22T15:59:04.503Z,78.27
2023-01-22T16:01:31.436Z,78.42
2023-01-22T16:03:58.506Z,78.63
2023-01-22T16:06:26.531Z,78.75
2023-01-22T16:08:54.968Z,78.82
2023-01-22T16:11:22.124Z,78.79
2023-01-22T16:13:49.077Z,78.97
2023-01-22T16:16:32.243Z,79.04
2023-01-22T16:19:00.262Z,79.04
2023-01-22T16:21:27.321Z,79.04
2023-01-22T16:23:56.591Z,78.97
2023-01-22T16:26:27.977Z,79.06
2023-01-22T16:28:55.853Z,79.13
2023-01-22T16:31:27.791Z,78.91
2023-01-22T16:33:57.771Z,78.92
2023-01-22T16:36:26.430Z,78.93
2023-01-22T16:38:53.484Z,78.98
2023-01-22T16:41:30.558Z,78.92
2023-01-22T16:44:09.183Z,78.94
2023-01-22T16:46:41.451Z,78.87
2023-01-22T16:49:19.710Z,78.94
2023-01-22T16:51:53.976Z,78.89
2023-01-22T16:54:28.061Z,79.02
2023-01-22T16:56:59.406Z,78.88
2023-01-22T16:59:29.673Z,78.98
2023-01-22T17:01:57.641Z,78.91
2023-01-22T17:04:24.694Z,78.88
2023-01-22T17:06:53.501Z,78.86
2023-01-22T17:09:33.484Z,78.80
2023-01-22T17:12:04.289Z,78.86
2023-01-22T17:14:32.205Z,78.95
2023-01-22T17:16:59.416Z,78.90
2023-01-22T17:19:26.460Z,78.85
2023-01-22T17:21:55.407Z,78.85
2023-01-22T17:24:22.592Z,78.85
2023-01-22T17:26:50.484Z,78.84
2023-01-22T17:29:17.791Z,78.92
2023-01-22T17:31:45.105Z,78.79
2023-01-22T17:34:12.141Z,78.84
2023-01-22T17:36:39.719Z,79.02
2023-01-22T17:39:07.085Z,79.11
2023-01-22T17:41:34.036Z,79.03
2023-01-22T17:44:01.084Z,79.03
2023-01-22T17:46:30.950Z,78.96
2023-01-22T17:48:58.518Z,78.83
2023-01-22T17:51:27.170Z,78.66
2023-01-22T17:53:55.158Z,78.72
2023-01-22T17:56:27.080Z,78.98
2023-01-22T17:58:55.939Z,78.98
2023-01-22T18:01:24.078Z,79.10
2023-01-22T18:03:51.262Z,79.02
2023-01-22T18:06:18.590Z,79.04
2023-01-22T18:08:45.634Z,79.07
2023-01-22T18:11:14.939Z,79.01
2023-01-22T18:13:42.200Z,78.83
2023-01-22T18:16:12.100Z,78.90
2023-01-22T18:18:39.476Z,79.06
2023-01-22T18:21:07.257Z,79.02
2023-01-22T18:23:34.404Z,79.06
2023-01-22T18:26:04.299Z,78.96
2023-01-22T18:28:31.506Z,78.93
2023-01-22T18:31:11.788Z,79.15
2023-01-22T18:33:38.936Z,79.30
2023-01-22T18:36:08.785Z,79.33
2023-01-22T18:38:37.131Z,79.25
2023-01-22T18:41:05.713Z,79.28
2023-01-22T18:43:32.682Z,79.32
2023-01-22T18:46:06.406Z,79.35
2023-01-22T18:48:33.497Z,79.36
2023-01-22T18:51:00.554Z,79.26
2023-01-22T18:53:27.691Z,79.31
2023-01-22T18:55:59.082Z,79.37
2023-01-22T18:58:34.328Z,79.41
2023-01-22T19:01:21.982Z,79.32
2023-01-22T19:03:52.168Z,79.47
2023-01-22T19:06:21.141Z,79.48
2023-01-22T19:08:58.524Z,79.51
2023-01-22T19:11:25.745Z,79.67
2023-01-22T19:13:53.756Z,79.74
2023-01-22T19:16:21.419Z,79.77
2023-01-22T19:18:49.029Z,79.75
2023-01-22T19:21:17.732Z,79.83
2023-01-22T19:23:49.532Z,79.70
2023-01-22T19:26:27.629Z,79.70
2023-01-22T19:28:56.239Z,79.81
2023-01-22T19:31:30.467Z,79.76
2023-01-22T19:33:59.356Z,79.79
2023-01-22T19:36:28.455Z,79.82
2023-01-22T19:38:56.256Z,79.76
2023-01-22T19:41:24.039Z,79.70
2023-01-22T19:43:55.025Z,79.87
2023-01-22T19:46:26.278Z,79.88
2023-01-22T19:48:53.889Z,79.86
2023-01-22T19:51:22.465Z,79.94
2023-01-22T19:53:49.493Z,79.89
2023-01-22T19:56:21.169Z,79.91
2023-01-22T19:58:48.980Z,80.04
2023-01-22T20:01:16.217Z,80.11
2023-01-22T20:03:43.161Z,80.11
2023-01-22T20:06:11.062Z,80.12
2023-01-22T20:08:39.045Z,80.09
2023-01-22T20:11:07.460Z,80.08
2023-01-22T20:13:34.538Z,80.37
2023-01-22T20:16:01.493Z,80.20
2023-01-22T20:18:28.930Z,80.17
2023-01-22T20:20:56.510Z,79.97
2023-01-22T20:23:23.958Z,80.09
2023-01-22T20:25:51.113Z,80.25
2023-01-22T20:28:18.385Z,80.34
2023-01-22T20:30:45.852Z,80.39
2023-01-22T20:33:12.888Z,80.55
2023-01-22T20:35:42.993Z,80.38
2023-01-22T20:38:09.872Z,80.26
2023-01-22T20:40:39.180Z,80.44
2023-01-22T20:43:06.120Z,80.42
2023-01-22T20:45:33.119Z,80.37
2023-01-22T20:48:00.126Z,80.30
2023-01-22T20:50:27.169Z,80.37
2023-01-22T20:52:54.090Z,80.41
2023-01-22T20:55:21.199Z,80.53
2023-01-22T20:57:48.126Z,80.52
2023-01-22T21:00:15.693Z,80.54
2023-01-22T21:02:42.641Z,80.47
2023-01-22T21:05:09.561Z,80.60
2023-01-22T21:07:36.458Z,80.43
2023-01-22T21:10:03.802Z,80.39
2023-01-22T21:12:30.750Z,80.42
2023-01-22T21:14:57.716Z,80.31
2023-01-22T21:17:24.656Z,80.40
2023-01-22T21:19:52.682Z,80.24
2023-01-22T21:22:19.684Z,80.33
2023-01-22T21:24:46.635Z,80.37
2023-01-22T21:27:13.583Z,80.35
2023-01-22T21:29:40.432Z,80.46
2023-01-22T21:32:07.270Z,80.55
2023-01-22T21:34:36.409Z,80.56
2023-01-22T21:37:03.357Z,80.48
2023-01-22T21:39:30.392Z,80.36
2023-01-22T21:42:16.087Z,80.35
2023-01-22T21:45:02.866Z,80.37
2023-01-22T21:47:30.125Z,80.35
2023-01-22T21:49:57.045Z,80.50
2023-01-22T21:52:23.949Z,80.36
2023-01-22T21:54:50.975Z,80.38
2023-01-22T21:57:17.890Z,80.35
2023-01-22T21:59:46.727Z,80.31
2023-01-22T22:02:15.387Z,80.11
2023-01-22T22:04:42.363Z,80.05
2023-01-22T22:07:09.312Z,80.03
2023-01-22T22:09:36.167Z,79.98
2023-01-22T22:12:03.431Z,80.07
2023-01-22T22:14:30.474Z,80.03
2023-01-22T22:17:00.013Z,80.06
2023-01-22T22:19:30.309Z,80.07
2023-01-22T22:21:57.278Z,80.09
2023-01-22T22:24:24.177Z,79.97
2023-01-22T22:26:51.172Z,80.04
2023-01-22T22:29:18.113Z,80.06
2023-01-22T22:31:45.039Z,80.09
2023-01-22T22:34:11.990Z,80.12
2023-01-22T22:36:38.896Z,80.04
2023-01-22T22:39:06.829Z,79.94
2023-01-22T22:41:34.812Z,79.91
2023-01-22T22:44:01.693Z,80.01
2023-01-22T22:46:33.437Z,80.11
2023-01-22T22:49:01.024Z,79.88
2023-01-22T22:51:35.903Z,80.06
2023-01-22T22:54:05.014Z,79.91
2023-01-22T22:56:32.187Z,80.01
2023-01-22T22:59:00.993Z,80.04
2023-01-22T23:01:28.375Z,79.96
2023-01-22T23:03:55.487Z,79.76
2023-01-22T23:06:25.497Z,79.68
2023-01-22T23:09:08.321Z,79.82
2023-01-22T23:11:35.208Z,79.92
2023-01-22T23:14:02.900Z,79.86
2023-01-22T23:16:35.057Z,79.73
2023-01-22T23:19:04.646Z,79.80
2023-01-22T23:21:35.103Z,79.90
2023-01-22T23:24:02.628Z,79.89
2023-01-22T23:26:30.157Z,79.92
2023-01-22T23:28:58.968Z,79.98
2023-01-22T23:31:26.781Z,79.92
2023-01-22T23:33:54.915Z,79.61
2023-01-22T23:36:22.276Z,79.51
2023-01-22T23:38:49.430Z,79.51
2023-01-22T23:41:17.304Z,79.44
2023-01-22T23:43:44.468Z,79.32
2023-01-22T23:46:16.043Z,79.29
2023-01-22T23:48:43.279Z,79.44
2023-01-22T23:51:10.882Z,79.40
2023-01-22T23:53:40.095Z,79.56
2023-01-22T23:56:07.615Z,79.48
2023-01-22T23:58:34.554Z,79.52
